Connexion S'enregistrer

Connexion à votre compte

Identifiant
Mot de passe
Maintenir la connexion active sur ce site

Créer un compte

Pour valider ce formulaire, vous devez remplir tous les champs.
Nom
Identifiant
Mot de passe
Répétez le mot de passe
Adresse e-mail
Répétez l'adresse e-mail

Nous contacter

 Téléphone : +33 (0)4 79 54 41 81

Coordonnées détaillées et accès : cliquez ici

 
LFLB °C
    Ferienhaus Ostsee
[source: ADDS]
METAR
LFLB 212030Z AUTO 13004KT 100V160 9999 BKN072 BKN086 OVC110 13/07 Q1017 =
TAF LFLB 211400Z 2115/2215 VRB03KT CAVOK PROB40 TEMPO 2115/2119 VRB15KT 4000 SHRA BKN040CB PROB30 TEMPO 2119/2124 -SHRA SCT040TCU BKN050 PROB30 2202/2206 4000 BR BECMG 2206/2209 34007KT
TAF
TAF LFLB 211400Z 2115/2215 VRB03KT CAVOK PROB40 TEMPO 2115/2119 VRB15KT 4000 SHRA BKN040CB PROB30 TEMPO 2119/2124 -SHRA SCT040TCU BKN050 PROB30 2202/2206 4000 BR BECMG 2206/2209 34007KT =
SR / SS: 04:39 / 18:30 UTC (Lever/Coucher du soleil le 2021-04-21)
JSN Boot template designed by JoomlaShine.com